Weather reports worldwide

Advertisment
Torrox, Spain (8484): temperature & dewpoint: 14.10.2019 22:00:00 - 20.10.2019 22:00:00 (CEST)Torrox, Spain (8484): wind speed & gusts: 14.10.2019 22:00:00 - 20.10.2019 22:00:00 (CEST)Torrox, Spain (8484): wind direction: 14.10.2019 22:00:00 - 20.10.2019 22:00:00 (CEST)Torrox, Spain (8484): reduced air pressure: 14.10.2019 22:00:00 - 20.10.2019 22:00:00 (CEST)Torrox, Spain (8484): precipitation: 14.10.2019 22:00:00 - 20.10.2019 22:00:00 (CEST)
Date & Time tt [°C] td [°C] ff [km/h] ff [kn] fx [km/h] fx [kn] dd ppp [hPa] rr [mm]
20.10.2019 22:00:00 - - - - - - - - -
20.10.2019 21:00:00 - - - - - - - - -
20.10.2019 20:00:00 - - - - - - - - -
20.10.2019 19:00:00 - - - - - - - - -
20.10.2019 18:00:00 19,2 13,6 28 15 35 19 W 1013,5 0,0
20.10.2019 17:00:00 19,5 13,9 28 15 36 19 W 1013,4 0,0
20.10.2019 16:00:00 19,7 13,0 27 14 37 20 W 1013,2 0,0
20.10.2019 15:00:00 19,2 13,2 30 16 35 19 WSW 1012,9 0,2
20.10.2019 14:00:00 19,9 13,9 28 15 35 19 WSW 1013,2 -
20.10.2019 13:00:00 18,4 12,6 29 15 34 19 W 1013,5 0,1
20.10.2019 12:00:00 18,5 11,8 19 10 25 13 WNW 1013,0 0,0
20.10.2019 11:00:00 15,9 11,4 10 6 17 9 WNW 1013,1 0,0
20.10.2019 10:00:00 15,3 11,1 6 4 15 8 NW 1011,7 0,0
20.10.2019 09:00:00 15,6 12,1 13 7 20 11 WNW 1011,1 0,0
20.10.2019 08:00:00 15,3 12,1 8 5 19 10 NW 1011,2 -
20.10.2019 07:00:00 15,8 11,3 7 4 38 21 WNW 1010,3 0,4
20.10.2019 06:00:00 18,2 11,0 18 10 39 21 WNW 1009,2 0,1
20.10.2019 05:00:00 18,4 12,4 23 12 41 22 WNW 1009,7 0,2
20.10.2019 04:00:00 16,7 15,3 16 9 41 22 NW 1009,4 3,5
20.10.2019 03:00:00 19,3 18,3 24 13 33 18 W 1009,5 1,1
20.10.2019 02:00:00 19,8 18,3 6 3 32 17 NW 1009,7 -
20.10.2019 01:00:00 19,7 17,9 16 9 21 11 W 1010,6 0,0
20.10.2019 00:00:00 20,9 17,3 14 7 35 19 WNW 1010,3 0,0
19.10.2019 23:00:00 20,5 17,3 23 13 41 22 WNW 1010,3 0,0
19.10.2019 22:00:00 21,0 17,4 17 9 29 16 WNW 1010,0 0,0
19.10.2019 21:00:00 21,3 17,5 9 5 25 14 NW 1009,9 0,0
19.10.2019 20:00:00 20,3 17,7 9 5 22 12 WNW 1009,8 -
19.10.2019 19:00:00 21,1 17,3 11 6 24 13 WNW 1009,7 0,0
19.10.2019 18:00:00 21,2 17,6 16 9 - - WNW 1010,2 -
19.10.2019 17:00:00 21,7 17,7 14 7 - - WNW 1010,6 -
19.10.2019 16:00:00 23,2 17,5 12 7 23 13 WNW 1011,2 0,0
19.10.2019 15:00:00 23,0 17,0 11 6 30 16 WNW 1011,8 0,0
19.10.2019 14:00:00 21,7 17,1 17 9 26 14 NW 1012,4 -
19.10.2019 13:00:00 23,0 17,2 12 6 22 12 WNW 1012,7 0,0
19.10.2019 12:00:00 21,9 17,1 10 5 13 7 WNW 1012,8 0,0
19.10.2019 11:00:00 23,0 17,0 4 2 6 3 WSW 1012,7 0,0
19.10.2019 10:00:00 21,2 16,6 2 1 13 7 NNE 1012,7 0,0
19.10.2019 09:00:00 16,6 14,0 7 4 11 6 N 1012,5 0,0
19.10.2019 08:00:00 - - - - - - - - -
19.10.2019 07:00:00 16,2 13,7 6 3 10 5 N 1012,4 0,0
19.10.2019 06:00:00 - - - - - - - - -
19.10.2019 05:00:00 - - - - - - - - -
19.10.2019 04:00:00 - - - - - - - - -
19.10.2019 03:00:00 17,0 14,0 6 3 10 5 N 1013,6 0,0
19.10.2019 02:00:00 17,0 13,8 7 4 9 5 N 1014,1 -
19.10.2019 01:00:00 17,7 14,0 4 2 9 5 NNE 1014,5 0,0
19.10.2019 00:00:00 17,6 13,2 5 3 10 5 N 1014,8 0,0
18.10.2019 23:00:00 18,0 14,7 6 3 9 5 NNE 1015,3 0,0
18.10.2019 22:00:00 18,5 16,3 2 1 8 5 NE 1015,4 0,0
18.10.2019 21:00:00 19,4 17,0 7 4 9 5 E 1015,2 0,0
18.10.2019 20:00:00 19,3 16,9 8 4 12 7 E 1015,2 -
18.10.2019 19:00:00 20,9 17,3 9 5 12 6 E 1015,1 0,0
18.10.2019 18:00:00 23,0 16,3 9 5 11 6 WSW 1015,5 0,0
18.10.2019 17:00:00 24,7 17,2 8 4 10 6 W 1016,1 0,0
18.10.2019 16:00:00 23,9 18,1 6 4 13 7 WNW 1016,4 0,0
18.10.2019 15:00:00 23,2 17,0 12 6 14 7 W 1017,0 0,0
18.10.2019 14:00:00 25,0 16,4 5 3 9 5 W 1017,8 -
18.10.2019 13:00:00 22,8 15,3 8 4 9 5 WNW 1018,5 0,0
18.10.2019 12:00:00 24,1 14,2 5 3 6 4 WSW 1018,4 0,0
18.10.2019 11:00:00 24,3 14,4 2 1 7 4 WNW 1018,6 0,0
18.10.2019 10:00:00 19,9 8,9 4 2 9 5 NNE 1018,5 0,0
18.10.2019 09:00:00 16,4 7,0 5 3 12 7 N 1017,9 0,0
18.10.2019 08:00:00 16,8 6,5 9 5 14 7 NNE 1017,8 -
18.10.2019 07:00:00 - - - - - - - - -
18.10.2019 06:00:00 - - - - - - - - -
18.10.2019 05:00:00 16,0 7,4 8 5 11 6 NNE 1018,1 0,0
18.10.2019 04:00:00 16,5 8,0 8 5 12 7 NNE 1018,4 0,0
18.10.2019 03:00:00 - - - - - - - - -
18.10.2019 02:00:00 - - - - - - - - -
18.10.2019 01:00:00 16,6 8,0 8 4 - - NNE 1018,6 -
18.10.2019 00:00:00 16,6 9,3 5 3 10 5 NE 1018,8 0,0
17.10.2019 23:00:00 17,3 8,1 9 5 11 6 NNE 1018,5 0,0
17.10.2019 22:00:00 17,9 8,4 7 4 9 5 NNE 1018,0 0,0
17.10.2019 21:00:00 19,0 9,2 4 2 8 4 N 1017,8 0,0
17.10.2019 20:00:00 19,8 13,1 2 1 16 8 WNW 1017,7 -
17.10.2019 19:00:00 20,4 14,3 11 6 16 8 WNW 1017,7 0,0
17.10.2019 18:00:00 21,6 14,5 14 8 22 12 WNW 1017,8 0,0
17.10.2019 17:00:00 22,6 14,4 13 7 16 9 WNW 1018,0 0,0
17.10.2019 16:00:00 23,8 14,2 6 3 9 5 WNW 1018,3 0,0
17.10.2019 15:00:00 25,5 15,5 3 2 10 6 WNW 1018,5 0,0
17.10.2019 14:00:00 23,4 15,2 5 3 11 6 WNW 1019,0 -
17.10.2019 13:00:00 21,3 13,9 10 6 18 10 WNW 1019,6 0,0
17.10.2019 12:00:00 20,0 12,5 13 7 16 8 WNW 1019,8 0,0
17.10.2019 11:00:00 - - - - - - - - -
17.10.2019 10:00:00 - - - - - - - - -
17.10.2019 09:00:00 15,8 5,1 8 4 14 8 NNE 1018,7 0,0
17.10.2019 08:00:00 14,4 5,0 10 5 14 8 NNE 1018,5 -
17.10.2019 07:00:00 15,0 5,5 12 6 16 8 NNE 1018,3 0,0
17.10.2019 06:00:00 14,7 5,5 11 6 15 8 N 1018,3 0,0
17.10.2019 05:00:00 15,3 6,1 11 6 14 8 NNE 1018,4 0,0
17.10.2019 04:00:00 15,6 6,2 9 5 16 9 NNE 1018,9 0,0
17.10.2019 03:00:00 - - - - - - - - -
17.10.2019 02:00:00 - - - - - - - - -
17.10.2019 01:00:00 - - - - - - - - -
17.10.2019 00:00:00 15,6 6,5 11 6 14 7 N 1019,3 0,0
16.10.2019 23:00:00 16,6 7,3 6 3 10 6 N 1019,2 0,0
16.10.2019 22:00:00 16,9 10,0 7 4 12 7 N 1018,7 0,0
16.10.2019 21:00:00 18,7 11,8 7 4 13 7 WNW 1018,5 0,0
16.10.2019 20:00:00 19,3 13,9 11 6 14 8 WNW 1018,0 -
16.10.2019 19:00:00 19,7 14,0 11 6 13 7 WNW 1018,2 0,0
16.10.2019 18:00:00 20,8 13,8 10 5 13 7 WNW 1018,2 0,0
16.10.2019 17:00:00 22,3 13,7 9 5 12 6 WNW 1018,8 0,0
16.10.2019 16:00:00 24,0 13,0 10 5 12 6 W 1019,3 0,0
16.10.2019 15:00:00 26,7 12,7 5 3 6 4 W 1019,8 0,0
16.10.2019 14:00:00 25,8 12,2 5 3 7 4 WSW 1020,9 -
16.10.2019 13:00:00 24,9 11,4 4 2 9 5 WSW 1021,4 0,0
16.10.2019 12:00:00 23,0 10,0 6 4 8 4 W 1021,7 0,0
16.10.2019 11:00:00 22,5 10,6 5 3 6 3 W 1021,7 0,0
16.10.2019 10:00:00 20,3 7,7 4 2 14 8 NW 1021,4 0,0
16.10.2019 09:00:00 15,7 4,1 10 6 16 9 NNE 1020,5 0,0
16.10.2019 08:00:00 15,4 4,5 12 7 16 9 NNE 1020,2 -
16.10.2019 07:00:00 15,1 4,5 10 6 16 9 NNE 1020,0 0,0
16.10.2019 06:00:00 - - - - - - - - -
16.10.2019 05:00:00 15,6 5,1 11 6 14 7 NNE 1020,3 0,0
16.10.2019 04:00:00 - - - - - - - - -
16.10.2019 03:00:00 15,7 6,7 9 5 12 6 NNE 1021,0 0,0
16.10.2019 02:00:00 15,3 7,1 9 5 12 6 NNE 1021,0 -
16.10.2019 01:00:00 - - - - - - - - -
16.10.2019 00:00:00 17,3 9,4 9 5 14 7 NE 1020,9 0,0
15.10.2019 23:00:00 18,1 9,7 7 4 11 6 ENE 1020,5 0,0
15.10.2019 22:00:00 - - - - - - - - -
15.10.2019 21:00:00 17,8 9,4 5 3 9 5 N 1019,9 0,0
15.10.2019 20:00:00 19,2 11,2 4 2 15 8 WNW 1019,7 -
15.10.2019 19:00:00 19,9 13,6 13 7 16 9 WNW 1019,4 0,0
15.10.2019 18:00:00 20,6 13,8 14 7 21 11 WNW 1019,3 0,0
15.10.2019 17:00:00 20,6 13,8 16 9 27 15 WNW 1019,1 0,0
15.10.2019 16:00:00 22,5 11,6 8 4 11 6 WNW 1019,3 0,0
15.10.2019 15:00:00 21,8 13,2 4 2 12 7 S 1019,8 0,0
15.10.2019 14:00:00 20,0 12,5 10 5 16 9 ESE 1020,2 -
15.10.2019 13:00:00 19,6 12,8 10 6 14 8 ESE 1020,4 0,0
15.10.2019 12:00:00 20,9 10,0 5 3 9 5 SE 1020,4 0,0
15.10.2019 11:00:00 21,7 9,6 7 4 12 7 WNW 1020,3 0,0
15.10.2019 10:00:00 20,4 9,3 8 4 16 9 WNW 1019,7 0,0
15.10.2019 09:00:00 14,2 5,3 12 6 16 9 N 1018,8 0,0
15.10.2019 08:00:00 14,7 6,5 6 4 15 8 NNW 1018,5 -
15.10.2019 07:00:00 17,0 8,9 13 7 38 21 WNW 1018,4 0,0
15.10.2019 06:00:00 18,0 8,3 12 6 25 13 NW 1018,4 0,0
15.10.2019 05:00:00 18,1 8,7 7 4 23 12 NW 1018,3 0,0
15.10.2019 04:00:00 18,5 11,3 15 8 36 20 WNW 1018,4 0,0
15.10.2019 03:00:00 19,7 13,7 28 15 36 20 WNW 1018,3 0,0
15.10.2019 02:00:00 19,5 14,7 30 16 37 20 W 1018,5 -
15.10.2019 01:00:00 19,9 14,5 28 15 39 21 WNW 1018,6 0,0
15.10.2019 00:00:00 20,2 14,1 25 13 34 19 WNW 1018,6 0,0
14.10.2019 23:00:00 20,6 11,8 21 11 38 20 WNW 1018,4 0,0
14.10.2019 22:00:00 21,5 8,4 14 8 37 20 NW 1017,8 0,0

tt = temperature
td = dewpoint
ff = wind speed
fx = gusts
dd = wind direction
ppp = reduced air pressure
rr = precipitation

Next stations